sensor_id;sensor_type;location;lat;lon;timestamp;temperature;humidity
21335;DHT22;69435;52.670;13.544;2024-01-30T00:00:58;2.70;57.50
21335;DHT22;69435;52.670;13.544;2024-01-30T00:03:44;2.70;57.50
21335;DHT22;69435;52.670;13.544;2024-01-30T00:06:30;2.60;57.40
21335;DHT22;69435;52.670;13.544;2024-01-30T00:09:17;2.60;57.40
21335;DHT22;69435;52.670;13.544;2024-01-30T00:12:03;2.60;57.40
21335;DHT22;69435;52.670;13.544;2024-01-30T00:14:49;2.60;57.40
21335;DHT22;69435;52.670;13.544;2024-01-30T00:17:36;2.60;57.50
21335;DHT22;69435;52.670;13.544;2024-01-30T00:20:22;2.60;57.50
21335;DHT22;69435;52.670;13.544;2024-01-30T00:23:08;2.60;57.60
21335;DHT22;69435;52.670;13.544;2024-01-30T00:25:54;2.50;57.70
21335;DHT22;69435;52.670;13.544;2024-01-30T00:28:42;2.50;57.80
21335;DHT22;69435;52.670;13.544;2024-01-30T00:31:28;2.50;57.70
21335;DHT22;69435;52.670;13.544;2024-01-30T00:34:15;2.50;57.70
21335;DHT22;69435;52.670;13.544;2024-01-30T00:37:01;2.40;57.60
21335;DHT22;69435;52.670;13.544;2024-01-30T00:39:47;2.40;57.60
21335;DHT22;69435;52.670;13.544;2024-01-30T00:42:33;2.40;57.60
21335;DHT22;69435;52.670;13.544;2024-01-30T00:45:19;2.40;57.70
21335;DHT22;69435;52.670;13.544;2024-01-30T00:48:05;2.40;57.80
21335;DHT22;69435;52.670;13.544;2024-01-30T00:50:51;2.40;57.90
21335;DHT22;69435;52.670;13.544;2024-01-30T00:53:37;2.30;57.80
21335;DHT22;69435;52.670;13.544;2024-01-30T00:56:23;2.40;57.80
21335;DHT22;69435;52.670;13.544;2024-01-30T00:59:10;2.30;57.90
21335;DHT22;69435;52.670;13.544;2024-01-30T01:01:57;2.30;58.00
21335;DHT22;69435;52.670;13.544;2024-01-30T01:04:43;2.30;58.10
21335;DHT22;69435;52.670;13.544;2024-01-30T01:07:30;2.30;58.10
21335;DHT22;69435;52.670;13.544;2024-01-30T01:10:19;2.30;58.10
21335;DHT22;69435;52.670;13.544;2024-01-30T01:13:05;2.30;58.00
21335;DHT22;69435;52.670;13.544;2024-01-30T01:15:51;2.30;57.90
21335;DHT22;69435;52.670;13.544;2024-01-30T01:18:37;2.20;57.70
21335;DHT22;69435;52.670;13.544;2024-01-30T01:21:23;2.20;57.70
21335;DHT22;69435;52.670;13.544;2024-01-30T01:24:09;2.20;57.70
21335;DHT22;69435;52.670;13.544;2024-01-30T01:26:55;2.20;57.80
21335;DHT22;69435;52.670;13.544;2024-01-30T01:29:42;2.20;57.90
21335;DHT22;69435;52.670;13.544;2024-01-30T01:32:28;2.20;58.00
21335;DHT22;69435;52.670;13.544;2024-01-30T01:35:15;2.20;58.00
21335;DHT22;69435;52.670;13.544;2024-01-30T01:38:01;2.20;58.10
21335;DHT22;69435;52.670;13.544;2024-01-30T01:40:48;2.20;58.20
21335;DHT22;69435;52.670;13.544;2024-01-30T01:43:34;2.20;58.30
21335;DHT22;69435;52.670;13.544;2024-01-30T01:46:20;2.20;58.40
21335;DHT22;69435;52.670;13.544;2024-01-30T01:49:06;2.10;58.40
21335;DHT22;69435;52.670;13.544;2024-01-30T01:51:55;2.10;58.50
21335;DHT22;69435;52.670;13.544;2024-01-30T01:54:45;2.10;58.50
21335;DHT22;69435;52.670;13.544;2024-01-30T01:57:33;2.10;58.50
21335;DHT22;69435;52.670;13.544;2024-01-30T02:00:20;2.10;58.50
21335;DHT22;69435;52.670;13.544;2024-01-30T02:03:06;2.10;58.50
21335;DHT22;69435;52.670;13.544;2024-01-30T02:05:56;2.10;58.60
21335;DHT22;69435;52.670;13.544;2024-01-30T02:08:42;2.10;58.70
21335;DHT22;69435;52.670;13.544;2024-01-30T02:11:28;2.10;58.70
21335;DHT22;69435;52.670;13.544;2024-01-30T02:14:14;2.10;58.60
21335;DHT22;69435;52.670;13.544;2024-01-30T02:17:00;2.10;58.60
21335;DHT22;69435;52.670;13.544;2024-01-30T02:19:47;2.10;58.60
21335;DHT22;69435;52.670;13.544;2024-01-30T02:22:34;2.10;59.30
21335;DHT22;69435;52.670;13.544;2024-01-30T02:25:33;2.10;58.60
21335;DHT22;69435;52.670;13.544;2024-01-30T02:28:22;2.10;58.60
21335;DHT22;69435;52.670;13.544;2024-01-30T02:31:08;2.10;58.40
21335;DHT22;69435;52.670;13.544;2024-01-30T02:33:54;2.10;58.40
21335;DHT22;69435;52.670;13.544;2024-01-30T02:36:43;2.10;58.50
21335;DHT22;69435;52.670;13.544;2024-01-30T02:39:29;2.10;58.60
21335;DHT22;69435;52.670;13.544;2024-01-30T02:42:15;2.10;58.70
21335;DHT22;69435;52.670;13.544;2024-01-30T02:45:01;2.10;58.70
21335;DHT22;69435;52.670;13.544;2024-01-30T02:47:47;2.20;58.80
21335;DHT22;69435;52.670;13.544;2024-01-30T02:50:34;2.20;58.80
21335;DHT22;69435;52.670;13.544;2024-01-30T02:53:20;2.20;58.90
21335;DHT22;69435;52.670;13.544;2024-01-30T02:56:06;2.10;59.00
21335;DHT22;69435;52.670;13.544;2024-01-30T02:58:55;2.10;59.00
21335;DHT22;69435;52.670;13.544;2024-01-30T03:01:44;2.20;59.00
21335;DHT22;69435;52.670;13.544;2024-01-30T03:04:30;2.10;59.00
21335;DHT22;69435;52.670;13.544;2024-01-30T03:07:16;2.20;59.00
21335;DHT22;69435;52.670;13.544;2024-01-30T03:10:04;2.10;59.10
21335;DHT22;69435;52.670;13.544;2024-01-30T03:12:51;2.10;59.10
21335;DHT22;69435;52.670;13.544;2024-01-30T03:15:37;2.10;59.10
21335;DHT22;69435;52.670;13.544;2024-01-30T03:18:23;2.10;59.20
21335;DHT22;69435;52.670;13.544;2024-01-30T03:21:09;2.10;59.90
21335;DHT22;69435;52.670;13.544;2024-01-30T03:23:55;2.10;59.30
21335;DHT22;69435;52.670;13.544;2024-01-30T03:26:41;2.10;59.30
21335;DHT22;69435;52.670;13.544;2024-01-30T03:29:27;2.10;59.30
21335;DHT22;69435;52.670;13.544;2024-01-30T03:32:13;2.10;59.40
21335;DHT22;69435;52.670;13.544;2024-01-30T03:34:59;2.10;59.30
21335;DHT22;69435;52.670;13.544;2024-01-30T03:37:45;2.00;59.20
21335;DHT22;69435;52.670;13.544;2024-01-30T03:40:31;2.00;59.10
21335;DHT22;69435;52.670;13.544;2024-01-30T03:43:17;2.00;59.00
21335;DHT22;69435;52.670;13.544;2024-01-30T03:46:03;2.00;59.60
21335;DHT22;69435;52.670;13.544;2024-01-30T03:48:49;2.00;58.90
21335;DHT22;69435;52.670;13.544;2024-01-30T03:51:36;2.00;58.90
21335;DHT22;69435;52.670;13.544;2024-01-30T03:54:21;2.00;58.90
21335;DHT22;69435;52.670;13.544;2024-01-30T03:57:07;2.00;58.90
21335;DHT22;69435;52.670;13.544;2024-01-30T03:59:53;2.00;59.00
21335;DHT22;69435;52.670;13.544;2024-01-30T04:02:39;1.90;59.00
21335;DHT22;69435;52.670;13.544;2024-01-30T04:05:26;1.90;59.00
21335;DHT22;69435;52.670;13.544;2024-01-30T04:08:12;2.00;59.10
21335;DHT22;69435;52.670;13.544;2024-01-30T04:10:58;1.90;59.10
21335;DHT22;69435;52.670;13.544;2024-01-30T04:13:44;1.90;59.10
21335;DHT22;69435;52.670;13.544;2024-01-30T04:16:32;1.90;59.10
21335;DHT22;69435;52.670;13.544;2024-01-30T04:19:18;1.90;59.00
21335;DHT22;69435;52.670;13.544;2024-01-30T04:22:04;1.90;59.00
21335;DHT22;69435;52.670;13.544;2024-01-30T04:24:50;1.90;59.10
21335;DHT22;69435;52.670;13.544;2024-01-30T04:27:37;1.90;59.10
21335;DHT22;69435;52.670;13.544;2024-01-30T04:30:23;2.00;59.10
21335;DHT22;69435;52.670;13.544;2024-01-30T04:33:10;1.90;59.10
21335;DHT22;69435;52.670;13.544;2024-01-30T04:35:56;2.00;59.10
21335;DHT22;69435;52.670;13.544;2024-01-30T04:38:42;1.90;59.20
21335;DHT22;69435;52.670;13.544;2024-01-30T04:41:28;2.00;59.90
21335;DHT22;69435;52.670;13.544;2024-01-30T04:44:17;2.00;59.30
21335;DHT22;69435;52.670;13.544;2024-01-30T04:47:03;2.00;59.30
21335;DHT22;69435;52.670;13.544;2024-01-30T04:49:51;2.00;59.30
21335;DHT22;69435;52.670;13.544;2024-01-30T04:52:37;2.00;59.20
21335;DHT22;69435;52.670;13.544;2024-01-30T04:55:23;2.00;59.20
21335;DHT22;69435;52.670;13.544;2024-01-30T04:58:09;2.00;59.20
21335;DHT22;69435;52.670;13.544;2024-01-30T05:00:55;2.00;59.30
21335;DHT22;69435;52.670;13.544;2024-01-30T05:03:41;2.00;59.30
21335;DHT22;69435;52.670;13.544;2024-01-30T05:06:27;2.00;59.30
21335;DHT22;69435;52.670;13.544;2024-01-30T05:09:13;2.00;59.30
21335;DHT22;69435;52.670;13.544;2024-01-30T05:11:59;2.00;59.30
21335;DHT22;69435;52.670;13.544;2024-01-30T05:14:45;2.10;59.30
21335;DHT22;69435;52.670;13.544;2024-01-30T05:17:31;2.00;59.20
21335;DHT22;69435;52.670;13.544;2024-01-30T05:20:17;2.10;59.30
21335;DHT22;69435;52.670;13.544;2024-01-30T05:23:03;2.10;59.30
21335;DHT22;69435;52.670;13.544;2024-01-30T05:25:49;2.00;59.20
21335;DHT22;69435;52.670;13.544;2024-01-30T05:28:35;2.00;59.20
21335;DHT22;69435;52.670;13.544;2024-01-30T05:31:22;2.00;59.20
21335;DHT22;69435;52.670;13.544;2024-01-30T05:34:08;2.00;59.30
21335;DHT22;69435;52.670;13.544;2024-01-30T05:36:54;2.00;59.30
21335;DHT22;69435;52.670;13.544;2024-01-30T05:39:40;2.00;59.40
21335;DHT22;69435;52.670;13.544;2024-01-30T05:42:26;2.10;59.50
21335;DHT22;69435;52.670;13.544;2024-01-30T05:45:12;2.00;59.40
21335;DHT22;69435;52.670;13.544;2024-01-30T05:47:58;2.00;59.40
21335;DHT22;69435;52.670;13.544;2024-01-30T05:50:44;2.00;59.30
21335;DHT22;69435;52.670;13.544;2024-01-30T05:53:30;2.00;59.30
21335;DHT22;69435;52.670;13.544;2024-01-30T05:56:16;2.00;59.30
21335;DHT22;69435;52.670;13.544;2024-01-30T05:59:02;2.00;59.30
21335;DHT22;69435;52.670;13.544;2024-01-30T06:01:49;2.00;59.20
21335;DHT22;69435;52.670;13.544;2024-01-30T06:04:35;2.00;59.20
21335;DHT22;69435;52.670;13.544;2024-01-30T06:07:21;2.00;59.10
21335;DHT22;69435;52.670;13.544;2024-01-30T06:10:08;2.00;59.10
21335;DHT22;69435;52.670;13.544;2024-01-30T06:12:54;2.00;59.00
21335;DHT22;69435;52.670;13.544;2024-01-30T06:15:40;1.90;58.90
21335;DHT22;69435;52.670;13.544;2024-01-30T06:18:26;1.90;58.80
21335;DHT22;69435;52.670;13.544;2024-01-30T06:21:12;1.90;58.90
21335;DHT22;69435;52.670;13.544;2024-01-30T06:23:58;1.90;59.10
21335;DHT22;69435;52.670;13.544;2024-01-30T06:26:44;1.90;59.20
21335;DHT22;69435;52.670;13.544;2024-01-30T06:29:30;1.90;59.40
21335;DHT22;69435;52.670;13.544;2024-01-30T06:32:16;1.90;59.40
21335;DHT22;69435;52.670;13.544;2024-01-30T06:35:03;1.90;59.50
21335;DHT22;69435;52.670;13.544;2024-01-30T06:37:49;1.90;59.60
21335;DHT22;69435;52.670;13.544;2024-01-30T06:40:35;1.90;59.60
21335;DHT22;69435;52.670;13.544;2024-01-30T06:43:22;2.00;59.70
21335;DHT22;69435;52.670;13.544;2024-01-30T06:46:08;2.00;59.70
21335;DHT22;69435;52.670;13.544;2024-01-30T06:48:54;1.90;59.70
21335;DHT22;69435;52.670;13.544;2024-01-30T06:51:40;2.00;59.60
21335;DHT22;69435;52.670;13.544;2024-01-30T06:54:26;2.00;59.60
21335;DHT22;69435;52.670;13.544;2024-01-30T06:57:12;2.00;59.60
21335;DHT22;69435;52.670;13.544;2024-01-30T07:00:00;2.00;59.50
21335;DHT22;69435;52.670;13.544;2024-01-30T07:02:46;2.00;59.40
21335;DHT22;69435;52.670;13.544;2024-01-30T07:05:32;2.00;59.40
21335;DHT22;69435;52.670;13.544;2024-01-30T07:08:18;2.00;59.40
21335;DHT22;69435;52.670;13.544;2024-01-30T07:11:05;2.00;59.40
21335;DHT22;69435;52.670;13.544;2024-01-30T07:13:51;2.10;59.50
21335;DHT22;69435;52.670;13.544;2024-01-30T07:16:38;2.10;59.60
21335;DHT22;69435;52.670;13.544;2024-01-30T07:19:23;2.10;59.60
21335;DHT22;69435;52.670;13.544;2024-01-30T07:22:10;2.10;59.70
21335;DHT22;69435;52.670;13.544;2024-01-30T07:24:56;2.20;59.70
21335;DHT22;69435;52.670;13.544;2024-01-30T07:27:41;2.30;59.80
21335;DHT22;69435;52.670;13.544;2024-01-30T07:30:27;2.30;59.90
21335;DHT22;69435;52.670;13.544;2024-01-30T07:33:14;2.30;60.00
21335;DHT22;69435;52.670;13.544;2024-01-30T07:36:00;2.30;60.00
21335;DHT22;69435;52.670;13.544;2024-01-30T07:38:46;2.40;60.10
21335;DHT22;69435;52.670;13.544;2024-01-30T07:41:32;2.50;60.20
21335;DHT22;69435;52.670;13.544;2024-01-30T07:44:18;2.50;60.10
21335;DHT22;69435;52.670;13.544;2024-01-30T07:47:05;2.70;60.30
21335;DHT22;69435;52.670;13.544;2024-01-30T07:49:51;2.70;60.20
21335;DHT22;69435;52.670;13.544;2024-01-30T07:52:37;2.80;60.20
21335;DHT22;69435;52.670;13.544;2024-01-30T07:55:25;2.90;60.40
21335;DHT22;69435;52.670;13.544;2024-01-30T07:58:13;3.00;60.30
21335;DHT22;69435;52.670;13.544;2024-01-30T08:00:59;3.20;60.40
21335;DHT22;69435;52.670;13.544;2024-01-30T08:03:46;3.30;60.40
21335;DHT22;69435;52.670;13.544;2024-01-30T08:06:33;3.40;60.30
21335;DHT22;69435;52.670;13.544;2024-01-30T08:09:19;3.50;60.30
21335;DHT22;69435;52.670;13.544;2024-01-30T08:12:05;3.60;60.20
21335;DHT22;69435;52.670;13.544;2024-01-30T08:14:51;3.70;60.20
21335;DHT22;69435;52.670;13.544;2024-01-30T08:17:37;3.80;60.00
21335;DHT22;69435;52.670;13.544;2024-01-30T08:20:24;3.90;59.80
21335;DHT22;69435;52.670;13.544;2024-01-30T08:23:10;4.00;59.70
21335;DHT22;69435;52.670;13.544;2024-01-30T08:25:56;4.20;59.70
21335;DHT22;69435;52.670;13.544;2024-01-30T08:28:42;4.30;59.70
21335;DHT22;69435;52.670;13.544;2024-01-30T08:31:28;4.40;59.40
21335;DHT22;69435;52.670;13.544;2024-01-30T08:34:14;4.60;59.30
21335;DHT22;69435;52.670;13.544;2024-01-30T08:37:00;4.70;59.10
21335;DHT22;69435;52.670;13.544;2024-01-30T08:39:46;4.80;58.90
21335;DHT22;69435;52.670;13.544;2024-01-30T08:42:32;5.00;59.00
21335;DHT22;69435;52.670;13.544;2024-01-30T08:45:18;5.20;59.00
21335;DHT22;69435;52.670;13.544;2024-01-30T08:48:05;5.40;58.70
21335;DHT22;69435;52.670;13.544;2024-01-30T08:50:51;5.60;58.30
21335;DHT22;69435;52.670;13.544;2024-01-30T08:53:37;5.90;58.10
21335;DHT22;69435;52.670;13.544;2024-01-30T08:56:23;6.10;57.60
21335;DHT22;69435;52.670;13.544;2024-01-30T08:59:09;6.20;56.60
21335;DHT22;69435;52.670;13.544;2024-01-30T09:01:56;6.40;56.30
21335;DHT22;69435;52.670;13.544;2024-01-30T09:04:44;6.60;55.70
21335;DHT22;69435;52.670;13.544;2024-01-30T09:07:30;6.70;54.90
21335;DHT22;69435;52.670;13.544;2024-01-30T09:10:16;6.90;54.60
21335;DHT22;69435;52.670;13.544;2024-01-30T09:13:02;7.10;54.00
21335;DHT22;69435;52.670;13.544;2024-01-30T09:15:48;7.20;53.50
21335;DHT22;69435;52.670;13.544;2024-01-30T09:18:34;7.30;52.80
21335;DHT22;69435;52.670;13.544;2024-01-30T09:21:20;7.40;51.80
21335;DHT22;69435;52.670;13.544;2024-01-30T09:24:07;7.50;51.60
21335;DHT22;69435;52.670;13.544;2024-01-30T09:26:53;7.60;51.40
21335;DHT22;69435;52.670;13.544;2024-01-30T09:29:39;7.70;51.10
21335;DHT22;69435;52.670;13.544;2024-01-30T09:32:25;7.80;50.40
21335;DHT22;69435;52.670;13.544;2024-01-30T09:35:12;7.80;49.80
21335;DHT22;69435;52.670;13.544;2024-01-30T09:37:58;7.80;48.90
21335;DHT22;69435;52.670;13.544;2024-01-30T09:40:49;7.90;48.50
21335;DHT22;69435;52.670;13.544;2024-01-30T09:43:41;7.90;48.50
21335;DHT22;69435;52.670;13.544;2024-01-30T09:46:34;7.90;48.40
21335;DHT22;69435;52.670;13.544;2024-01-30T09:49:22;7.90;48.30
21335;DHT22;69435;52.670;13.544;2024-01-30T09:52:11;8.00;48.10
21335;DHT22;69435;52.670;13.544;2024-01-30T09:54:59;7.90;48.30
21335;DHT22;69435;52.670;13.544;2024-01-30T09:57:46;7.90;47.80
21335;DHT22;69435;52.670;13.544;2024-01-30T10:00:33;8.00;47.80
21335;DHT22;69435;52.670;13.544;2024-01-30T10:03:19;8.00;47.30
21335;DHT22;69435;52.670;13.544;2024-01-30T10:06:06;8.10;47.40
21335;DHT22;69435;52.670;13.544;2024-01-30T10:08:53;8.10;47.50
21335;DHT22;69435;52.670;13.544;2024-01-30T10:11:39;8.10;47.40
21335;DHT22;69435;52.670;13.544;2024-01-30T10:14:25;8.20;47.50
21335;DHT22;69435;52.670;13.544;2024-01-30T10:17:12;8.30;47.30
21335;DHT22;69435;52.670;13.544;2024-01-30T10:19:58;8.30;47.10
21335;DHT22;69435;52.670;13.544;2024-01-30T10:22:44;8.40;46.50
21335;DHT22;69435;52.670;13.544;2024-01-30T10:25:31;8.50;46.60
21335;DHT22;69435;52.670;13.544;2024-01-30T10:28:17;8.70;46.20
21335;DHT22;69435;52.670;13.544;2024-01-30T10:31:03;8.70;45.70
21335;DHT22;69435;52.670;13.544;2024-01-30T10:33:49;8.70;45.00
21335;DHT22;69435;52.670;13.544;2024-01-30T10:36:43;8.70;44.50
21335;DHT22;69435;52.670;13.544;2024-01-30T10:39:38;8.70;44.20
21335;DHT22;69435;52.670;13.544;2024-01-30T10:42:26;8.70;44.80
21335;DHT22;69435;52.670;13.544;2024-01-30T10:45:17;8.70;44.70
21335;DHT22;69435;52.670;13.544;2024-01-30T10:48:05;8.70;44.80
21335;DHT22;69435;52.670;13.544;2024-01-30T10:50:55;8.80;44.80
21335;DHT22;69435;52.670;13.544;2024-01-30T10:53:46;8.90;43.90
21335;DHT22;69435;52.670;13.544;2024-01-30T10:56:35;8.90;43.40
21335;DHT22;69435;52.670;13.544;2024-01-30T10:59:23;8.90;43.20
21335;DHT22;69435;52.670;13.544;2024-01-30T11:02:10;9.00;43.40
21335;DHT22;69435;52.670;13.544;2024-01-30T11:04:58;9.00;43.30
21335;DHT22;69435;52.670;13.544;2024-01-30T11:07:45;9.10;43.30
21335;DHT22;69435;52.670;13.544;2024-01-30T11:10:31;9.20;43.20
21335;DHT22;69435;52.670;13.544;2024-01-30T11:13:19;9.30;42.80
21335;DHT22;69435;52.670;13.544;2024-01-30T11:16:05;9.40;41.50
21335;DHT22;69435;52.670;13.544;2024-01-30T11:18:52;9.50;41.10
21335;DHT22;69435;52.670;13.544;2024-01-30T11:21:44;9.50;41.30
21335;DHT22;69435;52.670;13.544;2024-01-30T11:24:30;9.60;41.10
21335;DHT22;69435;52.670;13.544;2024-01-30T11:27:16;9.60;40.50
21335;DHT22;69435;52.670;13.544;2024-01-30T11:30:03;9.70;40.30
21335;DHT22;69435;52.670;13.544;2024-01-30T11:33:11;9.70;40.00
21335;DHT22;69435;52.670;13.544;2024-01-30T11:35:58;9.80;40.70
21335;DHT22;69435;52.670;13.544;2024-01-30T11:38:45;10.00;40.40
21335;DHT22;69435;52.670;13.544;2024-01-30T11:41:32;10.00;39.40
21335;DHT22;69435;52.670;13.544;2024-01-30T11:44:20;10.10;39.60
21335;DHT22;69435;52.670;13.544;2024-01-30T11:47:06;10.10;39.50
21335;DHT22;69435;52.670;13.544;2024-01-30T11:49:53;10.20;39.20
21335;DHT22;69435;52.670;13.544;2024-01-30T11:52:39;10.20;39.20
21335;DHT22;69435;52.670;13.544;2024-01-30T11:55:25;10.20;39.50
21335;DHT22;69435;52.670;13.544;2024-01-30T11:58:12;10.20;38.70
21335;DHT22;69435;52.670;13.544;2024-01-30T12:00:58;10.20;38.40
21335;DHT22;69435;52.670;13.544;2024-01-30T12:03:51;10.20;38.80
21335;DHT22;69435;52.670;13.544;2024-01-30T12:06:38;10.20;38.80
21335;DHT22;69435;52.670;13.544;2024-01-30T12:09:25;10.20;38.20
21335;DHT22;69435;52.670;13.544;2024-01-30T12:12:11;10.20;38.40
21335;DHT22;69435;52.670;13.544;2024-01-30T12:14:57;10.20;38.90
21335;DHT22;69435;52.670;13.544;2024-01-30T12:17:43;10.20;39.20
21335;DHT22;69435;52.670;13.544;2024-01-30T12:20:29;10.30;38.90
21335;DHT22;69435;52.670;13.544;2024-01-30T12:23:15;10.30;38.60
21335;DHT22;69435;52.670;13.544;2024-01-30T12:26:03;10.30;38.60
21335;DHT22;69435;52.670;13.544;2024-01-30T12:28:56;10.30;38.30
21335;DHT22;69435;52.670;13.544;2024-01-30T12:31:43;10.30;38.90
21335;DHT22;69435;52.670;13.544;2024-01-30T12:34:29;10.30;38.70
21335;DHT22;69435;52.670;13.544;2024-01-30T12:37:16;10.30;38.70
21335;DHT22;69435;52.670;13.544;2024-01-30T12:40:08;10.40;39.00
21335;DHT22;69435;52.670;13.544;2024-01-30T12:42:55;10.40;38.60
21335;DHT22;69435;52.670;13.544;2024-01-30T12:45:41;10.30;38.80
21335;DHT22;69435;52.670;13.544;2024-01-30T12:48:28;10.40;39.30
21335;DHT22;69435;52.670;13.544;2024-01-30T12:51:15;10.40;39.30
21335;DHT22;69435;52.670;13.544;2024-01-30T12:54:05;10.50;39.40
21335;DHT22;69435;52.670;13.544;2024-01-30T12:56:52;10.50;38.80
21335;DHT22;69435;52.670;13.544;2024-01-30T12:59:38;10.50;39.20
21335;DHT22;69435;52.670;13.544;2024-01-30T13:02:24;10.40;39.00
21335;DHT22;69435;52.670;13.544;2024-01-30T13:05:12;10.40;39.30
21335;DHT22;69435;52.670;13.544;2024-01-30T13:07:58;10.40;39.50
21335;DHT22;69435;52.670;13.544;2024-01-30T13:10:44;10.40;39.70
21335;DHT22;69435;52.670;13.544;2024-01-30T13:13:30;10.30;39.50
21335;DHT22;69435;52.670;13.544;2024-01-30T13:16:16;10.40;39.80
21335;DHT22;69435;52.670;13.544;2024-01-30T13:19:02;10.30;40.00
21335;DHT22;69435;52.670;13.544;2024-01-30T13:21:48;10.30;40.00
21335;DHT22;69435;52.670;13.544;2024-01-30T13:24:34;10.30;40.00
21335;DHT22;69435;52.670;13.544;2024-01-30T13:27:20;10.30;40.30
21335;DHT22;69435;52.670;13.544;2024-01-30T13:30:07;10.30;40.20
21335;DHT22;69435;52.670;13.544;2024-01-30T13:32:55;10.30;40.20
21335;DHT22;69435;52.670;13.544;2024-01-30T13:35:41;10.20;40.30
21335;DHT22;69435;52.670;13.544;2024-01-30T13:38:27;10.20;40.40
21335;DHT22;69435;52.670;13.544;2024-01-30T13:41:13;10.20;40.50
21335;DHT22;69435;52.670;13.544;2024-01-30T13:43:59;10.10;40.60
21335;DHT22;69435;52.670;13.544;2024-01-30T13:46:45;10.10;41.00
21335;DHT22;69435;52.670;13.544;2024-01-30T13:49:32;10.10;41.20
21335;DHT22;69435;52.670;13.544;2024-01-30T13:52:18;10.00;40.70
21335;DHT22;69435;52.670;13.544;2024-01-30T13:55:04;10.00;41.40
21335;DHT22;69435;52.670;13.544;2024-01-30T13:57:50;10.00;41.50
21335;DHT22;69435;52.670;13.544;2024-01-30T14:00:36;10.00;41.50
21335;DHT22;69435;52.670;13.544;2024-01-30T14:03:22;9.90;41.60
21335;DHT22;69435;52.670;13.544;2024-01-30T14:06:08;9.90;41.80
21335;DHT22;69435;52.670;13.544;2024-01-30T14:08:55;9.90;42.00
21335;DHT22;69435;52.670;13.544;2024-01-30T14:11:41;10.00;42.20
21335;DHT22;69435;52.670;13.544;2024-01-30T14:14:28;9.90;42.20
21335;DHT22;69435;52.670;13.544;2024-01-30T14:17:14;9.90;42.10
21335;DHT22;69435;52.670;13.544;2024-01-30T14:20:00;9.90;42.50
21335;DHT22;69435;52.670;13.544;2024-01-30T14:22:46;9.90;42.50
21335;DHT22;69435;52.670;13.544;2024-01-30T14:25:32;9.90;42.60
21335;DHT22;69435;52.670;13.544;2024-01-30T14:28:18;9.90;42.70
21335;DHT22;69435;52.670;13.544;2024-01-30T14:31:04;9.90;42.90
21335;DHT22;69435;52.670;13.544;2024-01-30T14:33:50;9.80;42.90
21335;DHT22;69435;52.670;13.544;2024-01-30T14:36:38;9.80;43.60
21335;DHT22;69435;52.670;13.544;2024-01-30T14:39:24;9.80;43.00
21335;DHT22;69435;52.670;13.544;2024-01-30T14:42:10;9.80;43.30
21335;DHT22;69435;52.670;13.544;2024-01-30T14:44:56;9.80;43.40
21335;DHT22;69435;52.670;13.544;2024-01-30T14:47:43;9.80;43.50
21335;DHT22;69435;52.670;13.544;2024-01-30T14:50:29;9.80;43.50
21335;DHT22;69435;52.670;13.544;2024-01-30T14:53:15;9.80;43.70
21335;DHT22;69435;52.670;13.544;2024-01-30T14:56:01;9.80;44.00
21335;DHT22;69435;52.670;13.544;2024-01-30T14:58:49;9.80;44.10
21335;DHT22;69435;52.670;13.544;2024-01-30T15:01:34;9.80;44.10
21335;DHT22;69435;52.670;13.544;2024-01-30T15:04:20;9.70;44.20
21335;DHT22;69435;52.670;13.544;2024-01-30T15:07:06;9.70;44.30
21335;DHT22;69435;52.670;13.544;2024-01-30T15:09:52;9.70;44.50
21335;DHT22;69435;52.670;13.544;2024-01-30T15:12:38;9.70;44.60
21335;DHT22;69435;52.670;13.544;2024-01-30T15:15:24;9.70;44.70
21335;DHT22;69435;52.670;13.544;2024-01-30T15:18:10;9.60;44.90
21335;DHT22;69435;52.670;13.544;2024-01-30T15:20:57;9.60;44.90
21335;DHT22;69435;52.670;13.544;2024-01-30T15:23:42;9.50;45.20
21335;DHT22;69435;52.670;13.544;2024-01-30T15:26:29;9.50;45.30
21335;DHT22;69435;52.670;13.544;2024-01-30T15:29:15;9.50;45.50
21335;DHT22;69435;52.670;13.544;2024-01-30T15:32:01;9.40;45.60
21335;DHT22;69435;52.670;13.544;2024-01-30T15:34:48;9.30;45.70
21335;DHT22;69435;52.670;13.544;2024-01-30T15:37:34;9.30;46.00
21335;DHT22;69435;52.670;13.544;2024-01-30T15:40:20;9.20;46.10
21335;DHT22;69435;52.670;13.544;2024-01-30T15:43:06;9.10;46.30
21335;DHT22;69435;52.670;13.544;2024-01-30T15:45:53;9.00;46.50
21335;DHT22;69435;52.670;13.544;2024-01-30T15:48:39;9.00;46.80
21335;DHT22;69435;52.670;13.544;2024-01-30T15:51:25;8.90;47.00
21335;DHT22;69435;52.670;13.544;2024-01-30T15:54:11;8.80;47.10
21335;DHT22;69435;52.670;13.544;2024-01-30T15:56:57;8.80;47.30
21335;DHT22;69435;52.670;13.544;2024-01-30T15:59:43;8.70;47.50
21335;DHT22;69435;52.670;13.544;2024-01-30T16:02:30;8.70;47.70
21335;DHT22;69435;52.670;13.544;2024-01-30T16:05:16;8.60;47.90
21335;DHT22;69435;52.670;13.544;2024-01-30T16:08:02;8.60;48.10
21335;DHT22;69435;52.670;13.544;2024-01-30T16:10:48;8.50;48.20
21335;DHT22;69435;52.670;13.544;2024-01-30T16:13:35;8.50;48.30
21335;DHT22;69435;52.670;13.544;2024-01-30T16:16:24;8.50;48.60
21335;DHT22;69435;52.670;13.544;2024-01-30T16:19:10;8.40;48.60
21335;DHT22;69435;52.670;13.544;2024-01-30T16:21:56;8.40;48.90
21335;DHT22;69435;52.670;13.544;2024-01-30T16:24:42;8.30;48.90
21335;DHT22;69435;52.670;13.544;2024-01-30T16:27:29;8.30;49.10
21335;DHT22;69435;52.670;13.544;2024-01-30T16:30:16;8.20;49.20
21335;DHT22;69435;52.670;13.544;2024-01-30T16:33:03;8.20;49.50
21335;DHT22;69435;52.670;13.544;2024-01-30T16:35:50;8.10;49.70
21335;DHT22;69435;52.670;13.544;2024-01-30T16:38:36;8.10;49.90
21335;DHT22;69435;52.670;13.544;2024-01-30T16:41:22;8.20;49.90
21335;DHT22;69435;52.670;13.544;2024-01-30T16:44:08;8.10;50.00
21335;DHT22;69435;52.670;13.544;2024-01-30T16:46:54;8.10;50.20
21335;DHT22;69435;52.670;13.544;2024-01-30T16:49:40;8.10;50.30
21335;DHT22;69435;52.670;13.544;2024-01-30T16:52:26;8.00;50.40
21335;DHT22;69435;52.670;13.544;2024-01-30T16:55:12;8.00;50.50
21335;DHT22;69435;52.670;13.544;2024-01-30T16:57:59;8.00;50.60
21335;DHT22;69435;52.670;13.544;2024-01-30T17:00:45;8.00;50.70
21335;DHT22;69435;52.670;13.544;2024-01-30T17:03:31;8.00;50.80
21335;DHT22;69435;52.670;13.544;2024-01-30T17:06:17;8.00;50.90
21335;DHT22;69435;52.670;13.544;2024-01-30T17:09:03;8.00;51.00
21335;DHT22;69435;52.670;13.544;2024-01-30T17:11:50;7.90;51.10
21335;DHT22;69435;52.670;13.544;2024-01-30T17:14:36;8.00;51.20
21335;DHT22;69435;52.670;13.544;2024-01-30T17:17:25;8.00;51.30
21335;DHT22;69435;52.670;13.544;2024-01-30T17:20:11;8.00;51.40
21335;DHT22;69435;52.670;13.544;2024-01-30T17:23:00;7.90;51.40
21335;DHT22;69435;52.670;13.544;2024-01-30T17:25:48;8.00;51.50
21335;DHT22;69435;52.670;13.544;2024-01-30T17:28:35;7.90;51.70
21335;DHT22;69435;52.670;13.544;2024-01-30T17:31:21;7.90;51.70